sensor_id;sensor_type;location;lat;lon;timestamp;temperature;humidity
20496;DHT22;10406;54.132;17.968;2024-03-29T00:00:13;7.80;99.90
20496;DHT22;10406;54.132;17.968;2024-03-29T00:05:34;7.80;99.90
20496;DHT22;10406;54.132;17.968;2024-03-29T00:10:55;7.80;99.90
20496;DHT22;10406;54.132;17.968;2024-03-29T00:16:16;7.70;99.90
20496;DHT22;10406;54.132;17.968;2024-03-29T00:21:36;7.50;99.90
20496;DHT22;10406;54.132;17.968;2024-03-29T00:26:57;7.40;99.90
20496;DHT22;10406;54.132;17.968;2024-03-29T00:32:17;7.30;99.90
20496;DHT22;10406;54.132;17.968;2024-03-29T00:37:37;7.40;99.90
20496;DHT22;10406;54.132;17.968;2024-03-29T00:54:08;6.50;99.90
20496;DHT22;10406;54.132;17.968;2024-03-29T00:59:28;7.20;99.90
20496;DHT22;10406;54.132;17.968;2024-03-29T01:04:48;7.20;99.90
20496;DHT22;10406;54.132;17.968;2024-03-29T01:10:10;6.90;99.90
20496;DHT22;10406;54.132;17.968;2024-03-29T01:15:30;6.60;99.90
20496;DHT22;10406;54.132;17.968;2024-03-29T02:03:35;6.30;99.90
20496;DHT22;10406;54.132;17.968;2024-03-29T02:08:57;6.40;99.90
20496;DHT22;10406;54.132;17.968;2024-03-29T02:14:18;5.90;99.90
20496;DHT22;10406;54.132;17.968;2024-03-29T02:19:40;5.80;99.90
20496;DHT22;10406;54.132;17.968;2024-03-29T02:25:02;5.70;99.90
20496;DHT22;10406;54.132;17.968;2024-03-29T02:30:23;5.70;99.90
20496;DHT22;10406;54.132;17.968;2024-03-29T02:35:44;5.50;99.90
20496;DHT22;10406;54.132;17.968;2024-03-29T02:41:07;5.40;99.90
20496;DHT22;10406;54.132;17.968;2024-03-29T02:46:28;5.20;99.90
20496;DHT22;10406;54.132;17.968;2024-03-29T02:51:49;5.30;99.90
20496;DHT22;10406;54.132;17.968;2024-03-29T02:57:13;5.30;99.90
20496;DHT22;10406;54.132;17.968;2024-03-29T03:02:37;5.50;99.90
20496;DHT22;10406;54.132;17.968;2024-03-29T03:07:58;5.10;99.90
20496;DHT22;10406;54.132;17.968;2024-03-29T03:13:38;5.20;99.90
20496;DHT22;10406;54.132;17.968;2024-03-29T03:18:59;5.50;99.90
20496;DHT22;10406;54.132;17.968;2024-03-29T03:24:20;5.40;99.90
20496;DHT22;10406;54.132;17.968;2024-03-29T03:29:42;5.40;99.90
20496;DHT22;10406;54.132;17.968;2024-03-29T03:35:04;5.40;99.90
20496;DHT22;10406;54.132;17.968;2024-03-29T03:40:25;5.30;99.90
20496;DHT22;10406;54.132;17.968;2024-03-29T03:45:47;5.10;99.90
20496;DHT22;10406;54.132;17.968;2024-03-29T03:51:08;5.10;99.90
20496;DHT22;10406;54.132;17.968;2024-03-29T03:56:29;5.10;99.90
20496;DHT22;10406;54.132;17.968;2024-03-29T04:01:51;5.10;99.90
20496;DHT22;10406;54.132;17.968;2024-03-29T04:07:13;4.90;99.90
20496;DHT22;10406;54.132;17.968;2024-03-29T04:12:34;4.80;99.90
20496;DHT22;10406;54.132;17.968;2024-03-29T04:17:57;4.70;99.90
20496;DHT22;10406;54.132;17.968;2024-03-29T04:23:18;4.50;99.90
20496;DHT22;10406;54.132;17.968;2024-03-29T04:28:39;4.30;99.90
20496;DHT22;10406;54.132;17.968;2024-03-29T04:34:02;4.20;99.90
20496;DHT22;10406;54.132;17.968;2024-03-29T04:39:23;4.10;99.90
20496;DHT22;10406;54.132;17.968;2024-03-29T04:44:44;4.30;99.90
20496;DHT22;10406;54.132;17.968;2024-03-29T04:50:07;4.40;99.90
20496;DHT22;10406;54.132;17.968;2024-03-29T04:55:28;4.50;99.90
20496;DHT22;10406;54.132;17.968;2024-03-29T05:00:49;4.60;99.90
20496;DHT22;10406;54.132;17.968;2024-03-29T05:06:11;4.70;99.90
20496;DHT22;10406;54.132;17.968;2024-03-29T05:11:32;4.70;99.90
20496;DHT22;10406;54.132;17.968;2024-03-29T05:16:53;4.80;99.90
20496;DHT22;10406;54.132;17.968;2024-03-29T05:22:16;5.00;99.90
20496;DHT22;10406;54.132;17.968;2024-03-29T05:27:37;5.30;99.90
20496;DHT22;10406;54.132;17.968;2024-03-29T05:32:58;5.30;99.90
20496;DHT22;10406;54.132;17.968;2024-03-29T05:38:21;5.50;99.90
20496;DHT22;10406;54.132;17.968;2024-03-29T05:43:42;5.50;99.90
20496;DHT22;10406;54.132;17.968;2024-03-29T05:49:03;5.60;99.90
20496;DHT22;10406;54.132;17.968;2024-03-29T05:54:25;5.80;99.90
20496;DHT22;10406;54.132;17.968;2024-03-29T05:59:46;6.30;99.90
20496;DHT22;10406;54.132;17.968;2024-03-29T06:05:07;5.90;99.90
20496;DHT22;10406;54.132;17.968;2024-03-29T06:10:30;6.00;99.90
20496;DHT22;10406;54.132;17.968;2024-03-29T06:15:52;6.10;99.90
20496;DHT22;10406;54.132;17.968;2024-03-29T06:21:41;6.30;99.90
20496;DHT22;10406;54.132;17.968;2024-03-29T06:27:04;6.50;99.90
20496;DHT22;10406;54.132;17.968;2024-03-29T06:32:25;6.70;99.90
20496;DHT22;10406;54.132;17.968;2024-03-29T06:37:46;6.80;99.90
20496;DHT22;10406;54.132;17.968;2024-03-29T06:43:08;7.00;99.90
20496;DHT22;10406;54.132;17.968;2024-03-29T06:48:29;7.10;99.90
20496;DHT22;10406;54.132;17.968;2024-03-29T06:53:51;7.30;99.90
20496;DHT22;10406;54.132;17.968;2024-03-29T06:59:14;7.50;99.90
20496;DHT22;10406;54.132;17.968;2024-03-29T07:04:35;7.60;99.90
20496;DHT22;10406;54.132;17.968;2024-03-29T07:09:57;7.80;99.90
20496;DHT22;10406;54.132;17.968;2024-03-29T07:15:19;8.00;99.90
20496;DHT22;10406;54.132;17.968;2024-03-29T07:20:40;8.30;99.90
20496;DHT22;10406;54.132;17.968;2024-03-29T07:26:02;8.50;99.90
20496;DHT22;10406;54.132;17.968;2024-03-29T07:31:25;8.70;99.90
20496;DHT22;10406;54.132;17.968;2024-03-29T07:36:46;8.90;99.90
20496;DHT22;10406;54.132;17.968;2024-03-29T07:47:53;9.30;99.90
20496;DHT22;10406;54.132;17.968;2024-03-29T07:58:56;10.70;99.90
20496;DHT22;10406;54.132;17.968;2024-03-29T08:10:09;9.90;99.90
20496;DHT22;10406;54.132;17.968;2024-03-29T08:15:30;10.80;99.90
20496;DHT22;10406;54.132;17.968;2024-03-29T08:20:51;10.20;99.90
20496;DHT22;10406;54.132;17.968;2024-03-29T08:26:15;10.30;99.90
20496;DHT22;10406;54.132;17.968;2024-03-29T08:31:36;10.50;99.90
20496;DHT22;10406;54.132;17.968;2024-03-29T08:36:57;10.70;99.90
20496;DHT22;10406;54.132;17.968;2024-03-29T08:42:20;10.80;99.90
20496;DHT22;10406;54.132;17.968;2024-03-29T08:47:41;11.00;99.90
20496;DHT22;10406;54.132;17.968;2024-03-29T08:53:03;11.20;99.90
20496;DHT22;10406;54.132;17.968;2024-03-29T08:58:26;11.40;99.90
20496;DHT22;10406;54.132;17.968;2024-03-29T09:03:47;11.60;99.90
20496;DHT22;10406;54.132;17.968;2024-03-29T09:09:08;11.70;99.90
20496;DHT22;10406;54.132;17.968;2024-03-29T09:14:31;11.90;99.90
20496;DHT22;10406;54.132;17.968;2024-03-29T09:19:52;12.10;99.90
20496;DHT22;10406;54.132;17.968;2024-03-29T09:25:13;12.40;99.90
20496;DHT22;10406;54.132;17.968;2024-03-29T09:30:37;12.60;99.90
20496;DHT22;10406;54.132;17.968;2024-03-29T09:35:58;12.80;99.90
20496;DHT22;10406;54.132;17.968;2024-03-29T09:41:19;12.90;99.90
20496;DHT22;10406;54.132;17.968;2024-03-29T09:46:42;13.10;99.90
20496;DHT22;10406;54.132;17.968;2024-03-29T09:52:03;13.20;99.90
20496;DHT22;10406;54.132;17.968;2024-03-29T10:02:50;13.60;99.90
20496;DHT22;10406;54.132;17.968;2024-03-29T10:08:13;13.60;99.90
20496;DHT22;10406;54.132;17.968;2024-03-29T10:13:35;13.70;99.90
20496;DHT22;10406;54.132;17.968;2024-03-29T10:18:59;13.80;99.90
20496;DHT22;10406;54.132;17.968;2024-03-29T10:24:20;14.00;99.90
20496;DHT22;10406;54.132;17.968;2024-03-29T10:29:41;14.30;99.90
20496;DHT22;10406;54.132;17.968;2024-03-29T10:40:26;14.40;99.90
20496;DHT22;10406;54.132;17.968;2024-03-29T10:45:49;14.60;99.90
20496;DHT22;10406;54.132;17.968;2024-03-29T10:51:13;14.80;99.90
20496;DHT22;10406;54.132;17.968;2024-03-29T10:56:36;14.70;99.80
20496;DHT22;10406;54.132;17.968;2024-03-29T11:01:58;14.80;99.90
20496;DHT22;10406;54.132;17.968;2024-03-29T11:07:20;14.80;98.90
20496;DHT22;10406;54.132;17.968;2024-03-29T11:12:47;14.60;99.90
20496;DHT22;10406;54.132;17.968;2024-03-29T11:18:12;14.80;99.50
20496;DHT22;10406;54.132;17.968;2024-03-29T11:23:36;15.10;98.70
20496;DHT22;10406;54.132;17.968;2024-03-29T11:29:00;15.30;97.90
20496;DHT22;10406;54.132;17.968;2024-03-29T11:34:21;15.20;96.30
20496;DHT22;10406;54.132;17.968;2024-03-29T11:39:46;15.00;97.10
20496;DHT22;10406;54.132;17.968;2024-03-29T11:45:10;14.80;96.90
20496;DHT22;10406;54.132;17.968;2024-03-29T11:50:31;14.80;97.00
20496;DHT22;10406;54.132;17.968;2024-03-29T11:55:52;15.00;97.70
20496;DHT22;10406;54.132;17.968;2024-03-29T12:01:15;15.20;97.00
20496;DHT22;10406;54.132;17.968;2024-03-29T12:06:36;15.10;95.90
20496;DHT22;10406;54.132;17.968;2024-03-29T12:11:57;15.10;95.80
20496;DHT22;10406;54.132;17.968;2024-03-29T12:17:26;15.10;95.90
20496;DHT22;10406;54.132;17.968;2024-03-29T12:22:47;15.20;95.70
20496;DHT22;10406;54.132;17.968;2024-03-29T12:28:08;15.50;96.00
20496;DHT22;10406;54.132;17.968;2024-03-29T12:33:31;15.60;94.60
20496;DHT22;10406;54.132;17.968;2024-03-29T12:38:53;15.50;94.60
20496;DHT22;10406;54.132;17.968;2024-03-29T12:44:17;15.30;94.70
20496;DHT22;10406;54.132;17.968;2024-03-29T12:49:41;15.20;94.10
20496;DHT22;10406;54.132;17.968;2024-03-29T12:55:02;15.70;93.50
20496;DHT22;10406;54.132;17.968;2024-03-29T13:00:24;15.30;92.80
20496;DHT22;10406;54.132;17.968;2024-03-29T13:05:47;15.60;92.10
20496;DHT22;10406;54.132;17.968;2024-03-29T13:11:08;15.80;92.30
20496;DHT22;10406;54.132;17.968;2024-03-29T13:16:30;16.10;92.50
20496;DHT22;10406;54.132;17.968;2024-03-29T13:21:52;16.20;91.40
20496;DHT22;10406;54.132;17.968;2024-03-29T13:27:13;16.20;91.70
20496;DHT22;10406;54.132;17.968;2024-03-29T13:32:38;16.20;91.30
20496;DHT22;10406;54.132;17.968;2024-03-29T13:38:00;16.20;90.20
20496;DHT22;10406;54.132;17.968;2024-03-29T13:43:21;16.30;90.50
20496;DHT22;10406;54.132;17.968;2024-03-29T13:48:43;16.30;90.80
20496;DHT22;10406;54.132;17.968;2024-03-29T13:54:09;16.30;90.60
20496;DHT22;10406;54.132;17.968;2024-03-29T13:59:30;16.30;91.00
20496;DHT22;10406;54.132;17.968;2024-03-29T14:04:51;16.10;90.50
20496;DHT22;10406;54.132;17.968;2024-03-29T14:10:14;16.00;90.80
20496;DHT22;10406;54.132;17.968;2024-03-29T14:15:35;16.00;90.70
20496;DHT22;10406;54.132;17.968;2024-03-29T14:20:55;16.10;91.00
20496;DHT22;10406;54.132;17.968;2024-03-29T14:26:19;16.10;90.70
20496;DHT22;10406;54.132;17.968;2024-03-29T14:31:40;16.20;89.70
20496;DHT22;10406;54.132;17.968;2024-03-29T14:37:04;16.00;89.60
20496;DHT22;10406;54.132;17.968;2024-03-29T14:42:26;15.90;89.10
20496;DHT22;10406;54.132;17.968;2024-03-29T14:47:47;15.70;90.00
20496;DHT22;10406;54.132;17.968;2024-03-29T14:53:09;15.50;89.90
20496;DHT22;10406;54.132;17.968;2024-03-29T15:09:48;15.40;90.60
20496;DHT22;10406;54.132;17.968;2024-03-29T15:15:09;15.30;91.20
20496;DHT22;10406;54.132;17.968;2024-03-29T15:20:31;15.20;90.90
20496;DHT22;10406;54.132;17.968;2024-03-29T15:25:55;15.00;91.00
20496;DHT22;10406;54.132;17.968;2024-03-29T15:31:16;14.90;91.70
20496;DHT22;10406;54.132;17.968;2024-03-29T15:36:39;14.90;92.20
20496;DHT22;10406;54.132;17.968;2024-03-29T15:42:02;14.70;92.60
20496;DHT22;10406;54.132;17.968;2024-03-29T15:47:24;14.70;92.80
20496;DHT22;10406;54.132;17.968;2024-03-29T15:52:45;14.60;93.10
20496;DHT22;10406;54.132;17.968;2024-03-29T15:58:07;14.60;93.10
20496;DHT22;10406;54.132;17.968;2024-03-29T16:03:28;14.50;93.40
20496;DHT22;10406;54.132;17.968;2024-03-29T16:08:49;14.50;93.50
20496;DHT22;10406;54.132;17.968;2024-03-29T16:14:11;14.50;93.60
20496;DHT22;10406;54.132;17.968;2024-03-29T16:19:32;14.40;93.50
20496;DHT22;10406;54.132;17.968;2024-03-29T16:24:54;14.30;93.60
20496;DHT22;10406;54.132;17.968;2024-03-29T16:30:16;14.20;93.80
20496;DHT22;10406;54.132;17.968;2024-03-29T16:35:38;14.10;94.30
20496;DHT22;10406;54.132;17.968;2024-03-29T16:41:00;13.90;94.10
20496;DHT22;10406;54.132;17.968;2024-03-29T16:46:22;13.70;94.30
20496;DHT22;10406;54.132;17.968;2024-03-29T16:51:43;13.60;94.30
20496;DHT22;10406;54.132;17.968;2024-03-29T16:57:07;13.50;94.60
20496;DHT22;10406;54.132;17.968;2024-03-29T17:02:29;13.40;94.50
20496;DHT22;10406;54.132;17.968;2024-03-29T17:07:50;13.30;94.70
20496;DHT22;10406;54.132;17.968;2024-03-29T17:13:11;13.20;95.00
20496;DHT22;10406;54.132;17.968;2024-03-29T17:18:35;13.10;95.10
20496;DHT22;10406;54.132;17.968;2024-03-29T17:23:56;13.00;95.40
20496;DHT22;10406;54.132;17.968;2024-03-29T17:29:17;12.80;95.90
20496;DHT22;10406;54.132;17.968;2024-03-29T17:34:42;12.80;96.20
20496;DHT22;10406;54.132;17.968;2024-03-29T17:40:02;12.70;96.20
20496;DHT22;10406;54.132;17.968;2024-03-29T17:45:26;12.60;96.50
20496;DHT22;10406;54.132;17.968;2024-03-29T17:50:49;12.60;96.40
20496;DHT22;10406;54.132;17.968;2024-03-29T17:56:09;12.50;96.70
20496;DHT22;10406;54.132;17.968;2024-03-29T18:01:30;12.40;97.00
20496;DHT22;10406;54.132;17.968;2024-03-29T18:06:52;12.40;97.30
20496;DHT22;10406;54.132;17.968;2024-03-29T18:12:13;12.30;97.20
20496;DHT22;10406;54.132;17.968;2024-03-29T18:17:34;12.30;97.30
20496;DHT22;10406;54.132;17.968;2024-03-29T18:22:57;12.30;97.30
20496;DHT22;10406;54.132;17.968;2024-03-29T18:28:18;12.40;97.30
20496;DHT22;10406;54.132;17.968;2024-03-29T18:33:39;12.30;97.90
20496;DHT22;10406;54.132;17.968;2024-03-29T18:39:02;12.20;97.90
20496;DHT22;10406;54.132;17.968;2024-03-29T18:44:23;12.20;97.90
20496;DHT22;10406;54.132;17.968;2024-03-29T18:49:48;12.10;97.80
20496;DHT22;10406;54.132;17.968;2024-03-29T18:55:11;12.20;97.70
20496;DHT22;10406;54.132;17.968;2024-03-29T19:00:32;12.20;97.70
20496;DHT22;10406;54.132;17.968;2024-03-29T19:05:53;12.20;97.70
20496;DHT22;10406;54.132;17.968;2024-03-29T19:11:15;12.10;97.70
20496;DHT22;10406;54.132;17.968;2024-03-29T19:16:42;12.10;98.00
20496;DHT22;10406;54.132;17.968;2024-03-29T19:22:03;12.10;98.20
20496;DHT22;10406;54.132;17.968;2024-03-29T19:27:25;12.10;98.00
20496;DHT22;10406;54.132;17.968;2024-03-29T19:32:54;12.20;97.90
20496;DHT22;10406;54.132;17.968;2024-03-29T19:38:15;12.20;97.90
20496;DHT22;10406;54.132;17.968;2024-03-29T19:43:41;12.20;97.40
20496;DHT22;10406;54.132;17.968;2024-03-29T19:49:02;12.20;97.60
20496;DHT22;10406;54.132;17.968;2024-03-29T19:54:23;12.20;97.70
20496;DHT22;10406;54.132;17.968;2024-03-29T19:59:46;12.20;97.70
20496;DHT22;10406;54.132;17.968;2024-03-29T20:05:07;12.30;97.60
20496;DHT22;10406;54.132;17.968;2024-03-29T20:10:29;12.30;97.70
20496;DHT22;10406;54.132;17.968;2024-03-29T20:15:51;12.30;97.40
20496;DHT22;10406;54.132;17.968;2024-03-29T20:21:12;12.20;97.90
20496;DHT22;10406;54.132;17.968;2024-03-29T20:26:34;11.30;97.90
20496;DHT22;10406;54.132;17.968;2024-03-29T20:31:57;12.20;98.20
20496;DHT22;10406;54.132;17.968;2024-03-29T20:37:22;12.10;98.20
20496;DHT22;10406;54.132;17.968;2024-03-29T20:42:43;12.10;99.90
20496;DHT22;10406;54.132;17.968;2024-03-29T20:48:06;12.00;99.20
20496;DHT22;10406;54.132;17.968;2024-03-29T20:53:27;12.20;98.60
20496;DHT22;10406;54.132;17.968;2024-03-29T20:58:49;12.20;98.20
20496;DHT22;10406;54.132;17.968;2024-03-29T21:04:11;12.30;97.90
20496;DHT22;10406;54.132;17.968;2024-03-29T21:09:50;12.40;98.10
20496;DHT22;10406;54.132;17.968;2024-03-29T21:15:11;12.40;97.60
20496;DHT22;10406;54.132;17.968;2024-03-29T21:20:33;12.50;97.70
20496;DHT22;10406;54.132;17.968;2024-03-29T21:25:54;12.60;97.80
20496;DHT22;10406;54.132;17.968;2024-03-29T21:31:15;12.40;98.00
20496;DHT22;10406;54.132;17.968;2024-03-29T21:36:37;12.40;97.70
20496;DHT22;10406;54.132;17.968;2024-03-29T21:41:58;12.50;97.80
20496;DHT22;10406;54.132;17.968;2024-03-29T21:47:21;12.50;97.70
20496;DHT22;10406;54.132;17.968;2024-03-29T21:52:43;12.60;97.80
20496;DHT22;10406;54.132;17.968;2024-03-29T21:58:04;12.70;97.50
20496;DHT22;10406;54.132;17.968;2024-03-29T22:03:26;12.70;97.70
20496;DHT22;10406;54.132;17.968;2024-03-29T22:08:48;12.80;97.60
20496;DHT22;10406;54.132;17.968;2024-03-29T22:14:09;12.70;97.70
20496;DHT22;10406;54.132;17.968;2024-03-29T22:42:00;11.90;99.80
20496;DHT22;10406;54.132;17.968;2024-03-29T22:47:21;11.90;99.90
20496;DHT22;10406;54.132;17.968;2024-03-29T22:52:45;11.60;99.90
20496;DHT22;10406;54.132;17.968;2024-03-29T22:58:08;11.40;99.90
20496;DHT22;10406;54.132;17.968;2024-03-29T23:03:29;11.30;99.90
20496;DHT22;10406;54.132;17.968;2024-03-29T23:08:50;11.40;99.90
20496;DHT22;10406;54.132;17.968;2024-03-29T23:14:13;11.40;99.90
20496;DHT22;10406;54.132;17.968;2024-03-29T23:19:34;11.30;99.90
20496;DHT22;10406;54.132;17.968;2024-03-29T23:24:55;11.10;99.90
20496;DHT22;10406;54.132;17.968;2024-03-29T23:30:18;11.00;99.90
20496;DHT22;10406;54.132;17.968;2024-03-29T23:35:39;11.00;99.90
20496;DHT22;10406;54.132;17.968;2024-03-29T23:41:01;11.00;99.90
20496;DHT22;10406;54.132;17.968;2024-03-29T23:46:24;11.00;99.90
20496;DHT22;10406;54.132;17.968;2024-03-29T23:51:45;10.80;99.90
20496;DHT22;10406;54.132;17.968;2024-03-29T23:57:06;10.90;99.90
